Time;durP1;ratioP1;P1;durP2;ratioP2;P2;SDS_P1;SDS_P2;PMS_P1;PMS_P2;Temp;Humidity;BMP_temperature;BMP_pressure;BME280_temperature;BME280_humidity;BME280_pressure;Samples;Min_cycle;Max_cycle;Signal;HPM_P1;HPM_P2
2021/04/25 00:01:03;;;;;;;;;;;14.60;41.40;;;;;;5036721;28;20422;-76
2021/04/25 00:03:30;;;;;;;;;;;14.60;41.40;;;;;;5055089;28;19921;-76
2021/04/25 00:05:56;;;;;;;;;;;14.60;41.40;;;;;;5044272;28;19921;-75
2021/04/25 00:08:23;;;;;;;;;;;14.60;41.40;;;;;;5049962;28;19932;-76
2021/04/25 00:10:49;;;;;;;;;;;14.50;41.40;;;;;;5043968;28;19921;-76
2021/04/25 00:13:16;;;;;;;;;;;14.50;41.40;;;;;;5050571;28;19951;-76
2021/04/25 00:15:42;;;;;;;;;;;14.50;41.50;;;;;;5046217;28;19929;-76
2021/04/25 00:18:08;;;;;;;;;;;14.50;41.70;;;;;;5034444;28;19951;-76
2021/04/25 00:20:34;;;;;;;;;;;14.50;41.70;;;;;;5033807;28;19924;-76
2021/04/25 00:23:01;;;;;;;;;;;14.50;41.70;;;;;;5044654;28;19967;-76
2021/04/25 00:25:28;;;;;;;;;;;14.50;41.70;;;;;;5050311;28;19921;-76
2021/04/25 00:27:54;;;;;;;;;;;14.50;41.70;;;;;;5034681;28;19964;-76
2021/04/25 00:30:21;;;;;;;;;;;14.40;41.80;;;;;;5034098;28;19921;-76
2021/04/25 00:32:47;;;;;;;;;;;14.40;41.90;;;;;;5032851;28;19921;-76
2021/04/25 00:35:14;;;;;;;;;;;14.40;41.90;;;;;;5033748;28;19921;-76
2021/04/25 00:37:40;;;;;;;;;;;14.40;41.80;;;;;;5032846;28;19921;-77
2021/04/25 00:40:07;;;;;;;;;;;14.40;41.90;;;;;;5033518;28;20358;-75
2021/04/25 00:42:35;;;;;;;;;;;14.40;42.00;;;;;;5034207;28;19921;-76
2021/04/25 00:45:02;;;;;;;;;;;14.30;41.90;;;;;;5046858;28;19921;-79
2021/04/25 00:47:28;;;;;;;;;;;14.30;41.90;;;;;;5033961;28;20016;-79
2021/04/25 00:49:55;;;;;;;;;;;14.30;41.90;;;;;;5033509;28;19932;-78
2021/04/25 00:52:22;;;;;;;;;;;14.30;42.10;;;;;;5034026;28;20313;-77
2021/04/25 00:54:48;;;;;;;;;;;14.30;42.00;;;;;;5033603;28;19921;-77
2021/04/25 00:57:16;;;;;;;;;;;14.30;42.30;;;;;;5052812;28;19921;-77
2021/04/25 00:59:43;;;;;;;;;;;14.10;42.30;;;;;;5053330;28;19920;-76
2021/04/25 01:02:10;;;;;;;;;;;14.10;42.70;;;;;;5013986;28;19944;-77
2021/04/25 01:04:36;;;;;;;;;;;13.90;42.80;;;;;;5012544;28;19922;-77
2021/04/25 01:07:03;;;;;;;;;;;13.90;43.10;;;;;;5036559;28;20312;-76
2021/04/25 01:09:30;;;;;;;;;;;13.80;43.30;;;;;;5052573;28;20428;-76
2021/04/25 01:11:56;;;;;;;;;;;13.70;43.50;;;;;;5036044;28;19979;-76
2021/04/25 01:14:22;;;;;;;;;;;13.70;43.70;;;;;;5033376;28;19921;-76
2021/04/25 01:16:49;;;;;;;;;;;13.60;43.70;;;;;;5032463;28;19928;-76
2021/04/25 01:19:16;;;;;;;;;;;13.60;43.90;;;;;;5032870;28;19921;-76
2021/04/25 01:21:43;;;;;;;;;;;13.60;44.00;;;;;;5049072;28;19947;-76
2021/04/25 01:24:09;;;;;;;;;;;13.50;44.00;;;;;;5053267;28;19921;-77
2021/04/25 01:26:35;;;;;;;;;;;13.50;44.20;;;;;;5032295;28;19925;-77
2021/04/25 01:29:02;;;;;;;;;;;13.40;44.40;;;;;;5032662;28;20324;-77
2021/04/25 01:31:28;;;;;;;;;;;13.30;44.50;;;;;;5032222;28;19944;-77
2021/04/25 01:33:55;;;;;;;;;;;13.30;44.70;;;;;;5048499;28;20380;-76
2021/04/25 01:36:22;;;;;;;;;;;13.20;44.80;;;;;;5035977;28;20436;-77
2021/04/25 01:38:49;;;;;;;;;;;13.10;44.90;;;;;;5033301;28;19925;-76
2021/04/25 01:41:15;;;;;;;;;;;13.10;45.10;;;;;;5032760;28;19967;-77
2021/04/25 01:43:41;;;;;;;;;;;13.10;45.30;;;;;;5032909;28;19921;-76
2021/04/25 01:46:08;;;;;;;;;;;13.10;45.40;;;;;;5041801;28;19973;-77
2021/04/25 01:48:34;;;;;;;;;;;13.10;45.20;;;;;;5052794;28;19944;-77
2021/04/25 01:51:00;;;;;;;;;;;13.20;45.20;;;;;;5040395;28;19921;-77
2021/04/25 01:53:27;;;;;;;;;;;13.20;45.00;;;;;;5032965;28;19921;-77
2021/04/25 01:55:54;;;;;;;;;;;13.30;45.00;;;;;;5030169;28;19921;-78
2021/04/25 01:58:20;;;;;;;;;;;13.30;44.90;;;;;;5037222;28;20312;-77
2021/04/25 02:00:47;;;;;;;;;;;13.30;44.90;;;;;;5036729;28;19967;-77
2021/04/25 02:03:13;;;;;;;;;;;13.30;44.90;;;;;;5032922;28;19921;-77
2021/04/25 02:05:40;;;;;;;;;;;13.20;44.90;;;;;;5032568;28;19925;-78
2021/04/25 02:08:07;;;;;;;;;;;13.20;44.90;;;;;;5045879;28;19925;-77
2021/04/25 02:10:34;;;;;;;;;;;13.20;44.90;;;;;;5039265;28;19925;-77
2021/04/25 02:13:01;;;;;;;;;;;13.20;44.90;;;;;;5050218;28;19920;-78
2021/04/25 02:15:28;;;;;;;;;;;13.20;44.80;;;;;;5040882;28;19922;-78
2021/04/25 02:17:54;;;;;;;;;;;13.20;44.70;;;;;;5032847;28;19921;-77
2021/04/25 02:20:21;;;;;;;;;;;13.20;44.70;;;;;;5032415;28;19921;-77
2021/04/25 02:22:47;;;;;;;;;;;13.20;44.60;;;;;;5030975;28;20365;-77
2021/04/25 02:25:15;;;;;;;;;;;13.30;44.70;;;;;;5040128;28;20261;-77
2021/04/25 02:27:41;;;;;;;;;;;13.30;44.80;;;;;;5032407;28;19921;-78
2021/04/25 02:30:11;;;;;;;;;;;13.30;44.80;;;;;;5032392;28;19921;-78
2021/04/25 02:32:37;;;;;;;;;;;13.30;44.70;;;;;;5032964;28;19944;-78
2021/04/25 02:35:04;;;;;;;;;;;13.20;44.90;;;;;;5031638;28;19983;-76
2021/04/25 02:37:30;;;;;;;;;;;13.10;45.00;;;;;;5048976;28;19920;-77
2021/04/25 02:39:56;;;;;;;;;;;13.00;45.20;;;;;;5047571;28;20384;-78
2021/04/25 02:42:23;;;;;;;;;;;12.90;45.40;;;;;;5032633;28;19975;-77
2021/04/25 02:44:49;;;;;;;;;;;12.80;45.60;;;;;;5031800;28;19926;-78
2021/04/25 02:47:16;;;;;;;;;;;12.70;45.70;;;;;;5032537;28;19925;-78
2021/04/25 02:49:42;;;;;;;;;;;12.70;46.00;;;;;;5037991;28;19921;-78
2021/04/25 02:52:09;;;;;;;;;;;12.60;46.10;;;;;;5044133;28;19925;-78
2021/04/25 02:54:35;;;;;;;;;;;12.60;46.30;;;;;;5045630;28;19921;-79
2021/04/25 02:57:01;;;;;;;;;;;12.50;46.40;;;;;;5035040;28;19921;-79
2021/04/25 02:59:27;;;;;;;;;;;12.40;46.60;;;;;;5035702;28;19921;-78
2021/04/25 03:01:54;;;;;;;;;;;12.40;46.80;;;;;;5047892;28;20377;-78
2021/04/25 03:04:21;;;;;;;;;;;12.30;46.80;;;;;;5052218;28;20290;-79
2021/04/25 03:06:47;;;;;;;;;;;12.30;47.00;;;;;;5037843;28;20357;-77
2021/04/25 03:09:13;;;;;;;;;;;12.20;47.10;;;;;;5053511;28;20262;-78
2021/04/25 03:11:39;;;;;;;;;;;12.20;47.30;;;;;;5035032;28;19978;-78
2021/04/25 03:14:06;;;;;;;;;;;12.20;47.40;;;;;;5049833;28;19921;-79
2021/04/25 03:16:32;;;;;;;;;;;12.10;47.40;;;;;;5033517;28;19925;-79
2021/04/25 03:18:58;;;;;;;;;;;12.20;47.60;;;;;;5034935;28;19921;-79
2021/04/25 03:21:26;;;;;;;;;;;12.10;47.50;;;;;;5035464;28;20388;-79
2021/04/25 03:23:52;;;;;;;;;;;12.10;47.50;;;;;;5044464;28;20285;-79
2021/04/25 03:26:18;;;;;;;;;;;12.10;47.60;;;;;;5035405;28;19928;-79
2021/04/25 03:28:44;;;;;;;;;;;12.10;47.60;;;;;;5035210;28;19930;-80
2021/04/25 03:31:11;;;;;;;;;;;12.00;47.60;;;;;;5035543;28;19921;-80
2021/04/25 03:33:37;;;;;;;;;;;12.00;47.70;;;;;;5035104;28;19928;-81
2021/04/25 03:36:05;;;;;;;;;;;11.90;47.80;;;;;;5041959;28;19921;-79
2021/04/25 03:38:32;;;;;;;;;;;12.00;48.00;;;;;;5035343;28;19976;-79
2021/04/25 03:40:58;;;;;;;;;;;11.90;48.00;;;;;;5034836;28;19921;-79
2021/04/25 03:43:25;;;;;;;;;;;11.90;48.10;;;;;;5033633;28;19921;-80
2021/04/25 03:45:51;;;;;;;;;;;11.90;48.30;;;;;;5034729;28;19929;-79
2021/04/25 03:48:18;;;;;;;;;;;11.80;48.30;;;;;;5049174;28;19921;-78
2021/04/25 03:50:44;;;;;;;;;;;11.80;48.30;;;;;;5049694;28;19976;-78
2021/04/25 03:53:10;;;;;;;;;;;11.70;48.50;;;;;;5054968;28;20365;-78
2021/04/25 03:55:38;;;;;;;;;;;11.70;48.50;;;;;;5049450;28;19943;-78
2021/04/25 03:58:04;;;;;;;;;;;11.70;48.50;;;;;;5053393;28;19921;-79
2021/04/25 04:00:31;;;;;;;;;;;11.70;48.70;;;;;;5044668;28;19921;-78
2021/04/25 04:02:57;;;;;;;;;;;11.70;48.80;;;;;;5053380;28;19957;-78
2021/04/25 04:05:24;;;;;;;;;;;11.60;48.80;;;;;;5040817;28;20392;-78
2021/04/25 04:07:50;;;;;;;;;;;11.60;48.80;;;;;;5043737;28;19925;-80
2021/04/25 04:10:16;;;;;;;;;;;11.60;49.00;;;;;;5032668;28;19921;-79
2021/04/25 04:12:44;;;;;;;;;;;11.50;49.00;;;;;;5034524;28;20362;-78
2021/04/25 04:15:10;;;;;;;;;;;11.50;49.00;;;;;;5034098;28;19921;-79
2021/04/25 04:17:36;;;;;;;;;;;11.40;49.10;;;;;;5034385;28;19921;-81
2021/04/25 04:20:03;;;;;;;;;;;11.40;49.20;;;;;;5033748;28;20377;-80
2021/04/25 04:22:31;;;;;;;;;;;11.40;49.40;;;;;;5034797;28;19920;-79
2021/04/25 04:24:57;;;;;;;;;;;11.40;49.50;;;;;;5033526;28;19921;-80
2021/04/25 04:27:24;;;;;;;;;;;11.40;49.70;;;;;;5031269;28;19925;-81
2021/04/25 04:29:51;;;;;;;;;;;11.40;49.70;;;;;;5033446;28;19925;-80
2021/04/25 04:32:18;;;;;;;;;;;11.30;49.70;;;;;;5034485;28;19928;-80
2021/04/25 04:34:44;;;;;;;;;;;11.30;49.70;;;;;;5034069;28;20354;-81
2021/04/25 04:37:10;;;;;;;;;;;11.30;49.80;;;;;;5032446;28;19964;-80
2021/04/25 04:39:36;;;;;;;;;;;11.30;49.80;;;;;;5033968;28;19951;-80
2021/04/25 04:42:03;;;;;;;;;;;11.30;49.80;;;;;;5034265;28;20313;-80
2021/04/25 04:44:29;;;;;;;;;;;11.20;49.80;;;;;;5033398;28;19921;-80
2021/04/25 04:46:56;;;;;;;;;;;11.30;50.00;;;;;;5033645;28;19925;-80
2021/04/25 04:49:23;;;;;;;;;;;11.30;49.90;;;;;;5033664;28;19928;-80
2021/04/25 04:51:49;;;;;;;;;;;11.40;49.90;;;;;;5033732;28;19932;-80
2021/04/25 04:54:16;;;;;;;;;;;11.30;49.80;;;;;;5034034;28;19928;-80
2021/04/25 04:56:43;;;;;;;;;;;11.40;50.00;;;;;;5032879;28;19928;-80
2021/04/25 04:59:09;;;;;;;;;;;11.40;49.90;;;;;;5032769;28;19943;-81
2021/04/25 05:01:35;;;;;;;;;;;11.40;50.00;;;;;;5033849;28;19921;-79
2021/04/25 05:04:03;;;;;;;;;;;11.40;50.00;;;;;;5031833;28;19921;-81
2021/04/25 05:06:29;;;;;;;;;;;11.40;50.10;;;;;;5033427;28;19925;-79
2021/04/25 05:08:55;;;;;;;;;;;11.40;50.10;;;;;;5033248;28;19928;-79
2021/04/25 05:11:22;;;;;;;;;;;11.50;50.70;;;;;;5033343;28;19921;-79
2021/04/25 05:13:48;;;;;;;;;;;11.50;50.10;;;;;;5032994;28;19921;-78
2021/04/25 05:16:14;;;;;;;;;;;11.50;50.00;;;;;;5033156;28;19928;-79
2021/04/25 05:18:42;;;;;;;;;;;11.50;50.00;;;;;;5032380;28;19921;-78
2021/04/25 05:21:09;;;;;;;;;;;11.60;49.90;;;;;;5033601;28;20020;-78
2021/04/25 05:23:36;;;;;;;;;;;11.70;49.60;;;;;;5036327;28;19928;-80
2021/04/25 05:26:02;;;;;;;;;;;11.80;49.60;;;;;;5042146;28;19920;-80
2021/04/25 05:28:29;;;;;;;;;;;11.80;49.60;;;;;;5035304;28;19929;-80
2021/04/25 05:30:56;;;;;;;;;;;11.90;49.60;;;;;;5031061;28;19925;-79
2021/04/25 05:33:23;;;;;;;;;;;11.90;49.40;;;;;;5034316;28;20320;-78
2021/04/25 05:35:49;;;;;;;;;;;11.90;49.40;;;;;;5032998;28;20281;-79
2021/04/25 05:38:16;;;;;;;;;;;12.00;49.10;;;;;;5034474;28;20008;-79
2021/04/25 05:40:42;;;;;;;;;;;12.20;49.00;;;;;;5032071;28;20281;-78
2021/04/25 05:43:09;;;;;;;;;;;12.20;48.60;;;;;;5037448;28;19920;-79
2021/04/25 05:45:35;;;;;;;;;;;12.30;48.50;;;;;;5047981;28;20616;-79
2021/04/25 05:48:02;;;;;;;;;;;12.40;48.50;;;;;;5034128;28;19928;-79
2021/04/25 05:50:29;;;;;;;;;;;12.40;48.30;;;;;;5032840;28;19964;-80
2021/04/25 05:52:56;;;;;;;;;;;12.50;48.30;;;;;;5040946;28;19920;-78
2021/04/25 05:55:23;;;;;;;;;;;12.60;48.10;;;;;;5035714;28;19925;-79
2021/04/25 05:57:50;;;;;;;;;;;12.60;48.00;;;;;;5030171;28;19921;-78
2021/04/25 06:00:17;;;;;;;;;;;12.70;47.90;;;;;;5032134;28;19921;-78
2021/04/25 06:02:44;;;;;;;;;;;12.70;47.80;;;;;;5032713;28;19921;-78
2021/04/25 06:05:11;;;;;;;;;;;12.70;47.60;;;;;;5039249;28;19925;-79
2021/04/25 06:07:37;;;;;;;;;;;12.70;47.60;;;;;;5044878;28;20308;-79
2021/04/25 06:10:04;;;;;;;;;;;12.70;47.40;;;;;;5045961;28;19928;-79
2021/04/25 06:12:31;;;;;;;;;;;12.80;47.50;;;;;;5035196;28;19932;-80
2021/04/25 06:14:57;;;;;;;;;;;12.80;47.50;;;;;;5052641;28;19921;-78
2021/04/25 06:17:24;;;;;;;;;;;12.80;47.40;;;;;;5034768;28;19928;-79
2021/04/25 06:19:50;;;;;;;;;;;12.90;47.40;;;;;;5052491;28;19920;-79
2021/04/25 06:22:16;;;;;;;;;;;12.90;47.30;;;;;;5052305;28;19924;-79
2021/04/25 06:24:43;;;;;;;;;;;12.90;47.20;;;;;;5039778;28;19921;-79
2021/04/25 06:27:09;;;;;;;;;;;13.00;47.20;;;;;;5039662;28;19921;-78
2021/04/25 06:29:37;;;;;;;;;;;13.00;47.20;;;;;;5032724;28;19921;-78
2021/04/25 06:32:04;;;;;;;;;;;13.00;47.10;;;;;;5043861;28;19924;-79
2021/04/25 06:34:30;;;;;;;;;;;13.10;47.10;;;;;;5037200;28;20366;-79
2021/04/25 06:36:56;;;;;;;;;;;13.20;47.00;;;;;;5035992;28;19928;-77
2021/04/25 06:39:23;;;;;;;;;;;13.20;47.40;;;;;;5034849;28;19921;-78
2021/04/25 06:41:49;;;;;;;;;;;13.20;46.80;;;;;;5039674;28;19921;-78
2021/04/25 06:44:15;;;;;;;;;;;13.30;46.70;;;;;;5036714;28;19921;-77
2021/04/25 06:46:42;;;;;;;;;;;13.40;46.60;;;;;;5034433;28;20377;-77
2021/04/25 06:49:09;;;;;;;;;;;13.50;46.60;;;;;;5035991;28;19929;-77
2021/04/25 06:51:35;;;;;;;;;;;13.60;46.50;;;;;;5034712;28;19928;-77
2021/04/25 06:54:01;;;;;;;;;;;13.70;46.50;;;;;;5035936;28;19921;-78
2021/04/25 06:56:27;;;;;;;;;;;13.80;46.20;;;;;;5040734;28;19921;-80
2021/04/25 06:58:55;;;;;;;;;;;13.90;45.90;;;;;;5035583;28;20401;-77
2021/04/25 07:01:21;;;;;;;;;;;13.90;46.00;;;;;;5040582;28;19967;-77
2021/04/25 07:03:49;;;;;;;;;;;14.00;46.00;;;;;;5055007;28;20007;-77
2021/04/25 07:06:16;;;;;;;;;;;14.10;45.70;;;;;;5041696;28;19921;-76
2021/04/25 07:08:43;;;;;;;;;;;14.20;45.60;;;;;;5037873;28;19921;-77
2021/04/25 07:11:09;;;;;;;;;;;14.30;45.60;;;;;;5038112;28;20416;-78
2021/04/25 07:13:35;;;;;;;;;;;14.40;45.30;;;;;;5050912;28;19927;-77
2021/04/25 07:16:02;;;;;;;;;;;14.50;44.90;;;;;;5050536;28;19921;-77
2021/04/25 07:18:28;;;;;;;;;;;14.50;45.00;;;;;;5049644;28;19944;-76
2021/04/25 07:20:55;;;;;;;;;;;14.50;44.80;;;;;;5050921;28;19928;-77
2021/04/25 07:23:22;;;;;;;;;;;14.70;45.00;;;;;;5048906;28;19925;-76
2021/04/25 07:25:49;;;;;;;;;;;14.80;45.00;;;;;;5035833;28;19921;-77
2021/04/25 07:28:15;;;;;;;;;;;14.90;44.50;;;;;;5047985;28;20266;-78
2021/04/25 07:30:41;;;;;;;;;;;15.10;44.30;;;;;;5034866;28;20361;-77
2021/04/25 07:33:07;;;;;;;;;;;15.20;44.20;;;;;;5035121;28;19925;-76
2021/04/25 07:35:34;;;;;;;;;;;15.30;43.90;;;;;;5035244;28;19921;-77
2021/04/25 07:38:01;;;;;;;;;;;15.40;43.80;;;;;;5035035;28;19921;-77
2021/04/25 07:40:27;;;;;;;;;;;15.50;43.70;;;;;;5048174;28;19925;-76
2021/04/25 07:42:53;;;;;;;;;;;15.60;43.40;;;;;;5033431;28;19925;-75
2021/04/25 07:45:20;;;;;;;;;;;15.70;43.20;;;;;;5045070;28;19925;-75
2021/04/25 07:47:46;;;;;;;;;;;15.80;43.40;;;;;;5043408;28;19921;-74
2021/04/25 07:50:14;;;;;;;;;;;15.90;42.90;;;;;;5048821;28;19936;-75
2021/04/25 07:52:40;;;;;;;;;;;16.00;42.80;;;;;;5050583;28;19979;-76
2021/04/25 07:55:08;;;;;;;;;;;16.10;42.60;;;;;;5054164;28;19951;-76
2021/04/25 07:57:36;;;;;;;;;;;16.30;42.50;;;;;;5050020;28;19921;-76
2021/04/25 08:00:04;;;;;;;;;;;16.40;42.20;;;;;;5036244;28;20030;-76
2021/04/25 08:02:30;;;;;;;;;;;16.50;42.10;;;;;;5041776;28;19921;-77
2021/04/25 08:04:56;;;;;;;;;;;16.60;41.60;;;;;;5053323;28;19940;-77
2021/04/25 08:07:23;;;;;;;;;;;16.70;41.50;;;;;;5044255;28;19921;-77
2021/04/25 08:09:49;;;;;;;;;;;16.70;41.20;;;;;;5038496;28;19925;-76
2021/04/25 08:12:17;;;;;;;;;;;16.80;40.90;;;;;;5046465;28;19921;-77
2021/04/25 08:14:43;;;;;;;;;;;16.80;41.20;;;;;;5046680;28;20413;-78
2021/04/25 08:17:09;;;;;;;;;;;16.90;41.00;;;;;;5034583;28;19984;-77
2021/04/25 08:19:36;;;;;;;;;;;16.90;40.80;;;;;;5034164;28;19928;-79
2021/04/25 08:22:02;;;;;;;;;;;17.00;40.70;;;;;;5033825;28;19921;-79
2021/04/25 08:24:28;;;;;;;;;;;17.00;40.50;;;;;;5034166;28;19925;-78
2021/04/25 08:26:54;;;;;;;;;;;17.10;40.50;;;;;;5033258;28;20386;-80
2021/04/25 08:29:22;;;;;;;;;;;17.20;40.20;;;;;;5034002;28;19925;-79
2021/04/25 08:31:48;;;;;;;;;;;17.40;40.10;;;;;;5034172;28;19921;-78
2021/04/25 08:34:14;;;;;;;;;;;17.60;39.80;;;;;;5033802;28;19925;-79
2021/04/25 08:36:40;;;;;;;;;;;17.60;39.40;;;;;;5032596;28;19921;-78
2021/04/25 08:39:07;;;;;;;;;;;17.70;39.40;;;;;;5034285;28;20370;-78
2021/04/25 08:41:33;;;;;;;;;;;17.70;39.30;;;;;;5033306;28;19921;-78
2021/04/25 08:44:00;;;;;;;;;;;17.60;39.40;;;;;;5034080;28;19944;-79
2021/04/25 08:46:29;;;;;;;;;;;17.60;39.30;;;;;;5034014;28;19925;-79
2021/04/25 08:48:56;;;;;;;;;;;17.60;39.40;;;;;;5033200;28;20015;-79
2021/04/25 08:51:27;;;;;;;;;;;17.70;39.60;;;;;;4998560;28;23608;-78
2021/04/25 08:53:56;;;;;;;;;;;17.80;39.30;;;;;;5032086;28;19991;-79
2021/04/25 08:56:23;;;;;;;;;;;17.90;38.60;;;;;;5032949;28;19921;-78
2021/04/25 08:58:53;;;;;;;;;;;17.70;39.00;;;;;;5033891;28;19928;-78
2021/04/25 09:01:19;;;;;;;;;;;17.70;39.20;;;;;;5032700;28;19928;-78
2021/04/25 09:03:46;;;;;;;;;;;17.60;39.10;;;;;;5036239;28;20258;-78
2021/04/25 09:06:12;;;;;;;;;;;17.60;39.10;;;;;;5039550;28;20376;-78
2021/04/25 09:08:43;;;;;;;;;;;17.60;38.90;;;;;;5050980;28;20304;-79
2021/04/25 09:11:23;;;;;;;;;;;17.50;38.90;;;;;;5044893;28;19921;-79
2021/04/25 09:14:10;;;;;;;;;;;17.40;38.60;;;;;;5045121;28;19921;-78
2021/04/25 09:16:36;;;;;;;;;;;17.40;38.50;;;;;;5040484;28;20007;-80
2021/04/25 09:19:03;;;;;;;;;;;17.40;38.40;;;;;;5038526;28;19928;-79
2021/04/25 09:21:30;;;;;;;;;;;17.30;38.30;;;;;;5032973;28;19964;-79
2021/04/25 09:23:56;;;;;;;;;;;17.40;38.70;;;;;;5032312;28;19925;-81
2021/04/25 09:26:40;;;;;;;;;;;17.40;38.50;;;;;;5033169;28;19921;-80
2021/04/25 09:29:06;;;;;;;;;;;17.40;38.70;;;;;;5032524;28;20004;-80
2021/04/25 09:31:41;;;;;;;;;;;17.40;38.90;;;;;;5031950;28;20362;-79
2021/04/25 09:34:08;;;;;;;;;;;17.40;38.90;;;;;;5032883;28;19921;-79
2021/04/25 09:36:34;;;;;;;;;;;17.30;38.80;;;;;;5032840;28;19921;-79
2021/04/25 09:39:09;;;;;;;;;;;17.30;38.80;;;;;;5031500;28;20028;-77
2021/04/25 09:41:35;;;;;;;;;;;17.20;38.20;;;;;;5022781;28;19921;-79
2021/04/25 09:44:02;;;;;;;;;;;17.20;38.30;;;;;;5030628;28;19922;-78
2021/04/25 09:46:49;;;;;;;;;;;17.20;38.20;;;;;;5031610;28;19921;-79
2021/04/25 09:49:34;;;;;;;;;;;17.20;38.00;;;;;;5030588;28;19921;-78
2021/04/25 09:52:00;;;;;;;;;;;17.10;37.90;;;;;;5029837;28;19921;-78
2021/04/25 09:54:27;;;;;;;;;;;17.10;38.20;;;;;;5032491;28;19947;-78
2021/04/25 09:56:53;;;;;;;;;;;17.10;38.10;;;;;;5030422;28;20094;-78
2021/04/25 09:59:20;;;;;;;;;;;17.00;37.70;;;;;;5030526;28;19932;-78
2021/04/25 10:01:46;;;;;;;;;;;17.00;38.00;;;;;;5030848;28;19921;-79
2021/04/25 10:04:30;;;;;;;;;;;17.00;38.20;;;;;;5014546;28;19943;-78
2021/04/25 10:06:57;;;;;;;;;;;17.00;37.70;;;;;;5037728;28;19925;-81
2021/04/25 10:09:23;;;;;;;;;;;17.00;37.10;;;;;;5037284;28;19928;-80
2021/04/25 10:11:50;;;;;;;;;;;16.90;37.50;;;;;;5034961;28;19983;-79
2021/04/25 10:14:16;;;;;;;;;;;17.00;37.20;;;;;;5035878;28;19971;-79
2021/04/25 10:16:43;;;;;;;;;;;17.00;37.60;;;;;;5036474;28;19921;-79
2021/04/25 10:19:09;;;;;;;;;;;17.10;38.00;;;;;;5036013;28;20356;-80
2021/04/25 10:21:37;;;;;;;;;;;17.20;38.00;;;;;;5035396;28;20420;-79
2021/04/25 10:24:03;;;;;;;;;;;17.30;37.90;;;;;;5034705;28;19933;-79
2021/04/25 10:26:41;;;;;;;;;;;17.40;38.00;;;;;;5037014;28;19921;-79
2021/04/25 10:29:09;;;;;;;;;;;17.50;37.30;;;;;;5033060;28;19921;-79
2021/04/25 10:31:37;;;;;;;;;;;17.60;36.70;;;;;;5038049;28;19921;-79
2021/04/25 10:34:05;;;;;;;;;;;17.70;36.60;;;;;;5038289;28;19963;-79
2021/04/25 10:36:51;;;;;;;;;;;17.80;36.00;;;;;;5024073;28;20366;-79
2021/04/25 10:39:35;;;;;;;;;;;17.90;36.20;;;;;;5040131;28;19927;-79
2021/04/25 10:42:20;;;;;;;;;;;18.20;35.90;;;;;;5038268;28;20396;-81
2021/04/25 10:45:15;;;;;;;;;;;18.40;35.90;;;;;;5042046;28;19943;-84
2021/04/25 10:47:42;;;;;;;;;;;18.60;35.70;;;;;;5040511;28;20008;-83
2021/04/25 10:50:23;;;;;;;;;;;18.80;36.10;;;;;;5054658;28;19920;-81
2021/04/25 10:52:56;;;;;;;;;;;19.10;35.80;;;;;;5043269;28;19921;-83
2021/04/25 10:55:28;;;;;;;;;;;19.40;34.80;;;;;;5036228;28;19928;-81
2021/04/25 10:58:14;;;;;;;;;;;19.90;33.60;;;;;;5040004;28;19921;-78
2021/04/25 11:00:42;;;;;;;;;;;20.50;33.20;;;;;;5041126;28;19921;-78
2021/04/25 11:03:09;;;;;;;;;;;21.20;32.60;;;;;;5037648;28;19928;-77
2021/04/25 11:05:43;;;;;;;;;;;21.90;31.50;;;;;;5034222;28;19921;-78
2021/04/25 11:08:41;;;;;;;;;;;22.60;30.00;;;;;;5038688;28;19925;-77
2021/04/25 11:11:09;;;;;;;;;;;23.40;29.70;;;;;;4973978;28;20041;-81
2021/04/25 11:13:40;;;;;;;;;;;24.50;28.20;;;;;;5021731;28;19921;-81
2021/04/25 11:16:09;;;;;;;;;;;25.40;27.30;;;;;;5041326;28;19931;-82
2021/04/25 11:18:46;;;;;;;;;;;26.60;26.50;;;;;;5046325;28;19951;-80
2021/04/25 11:21:46;;;;;;;;;;;28.00;25.80;;;;;;5035984;28;19925;-76
2021/04/25 11:24:29;;;;;;;;;;;29.70;24.20;;;;;;5035936;28;19943;-77
2021/04/25 11:26:57;;;;;;;;;;;31.90;21.60;;;;;;5040610;28;20369;-80
2021/04/25 11:29:43;;;;;;;;;;;33.60;19.90;;;;;;5035308;28;19921;-79
2021/04/25 11:32:22;;;;;;;;;;;35.20;19.10;;;;;;5040478;28;19932;-81
2021/04/25 11:34:56;;;;;;;;;;;37.30;17.80;;;;;;5038595;28;19921;-79
2021/04/25 11:37:23;;;;;;;;;;;38.70;16.30;;;;;;5045563;28;19925;-79
2021/04/25 11:39:52;;;;;;;;;;;39.90;15.10;;;;;;5036757;28;20015;-79
2021/04/25 11:42:24;;;;;;;;;;;41.20;14.10;;;;;;5043119;28;19967;-78
2021/04/25 11:44:50;;;;;;;;;;;41.90;13.60;;;;;;5036703;28;19951;-82
2021/04/25 11:47:18;;;;;;;;;;;42.70;13.20;;;;;;5043546;28;19971;-80
2021/04/25 11:49:45;;;;;;;;;;;43.40;13.30;;;;;;5036960;28;19925;-79
2021/04/25 11:52:14;;;;;;;;;;;44.00;12.30;;;;;;5036366;28;19952;-78
2021/04/25 11:54:41;;;;;;;;;;;44.40;11.70;;;;;;5034369;28;19968;-77
2021/04/25 11:57:07;;;;;;;;;;;44.90;11.30;;;;;;5033613;28;20289;-78
2021/04/25 11:59:34;;;;;;;;;;;45.30;11.10;;;;;;5046065;28;20391;-75
2021/04/25 12:02:06;;;;;;;;;;;45.50;10.50;;;;;;5035170;28;19928;-77
2021/04/25 12:04:46;;;;;;;;;;;45.50;10.40;;;;;;5048264;28;20000;-77
2021/04/25 12:07:12;;;;;;;;;;;45.60;10.40;;;;;;5046923;28;19921;-77
2021/04/25 12:09:39;;;;;;;;;;;45.20;10.10;;;;;;5045043;28;19924;-79
2021/04/25 12:12:06;;;;;;;;;;;42.30;10.30;;;;;;5050321;28;19921;-79
2021/04/25 12:14:33;;;;;;;;;;;38.80;11.50;;;;;;5031605;28;19921;-78
2021/04/25 12:17:12;;;;;;;;;;;35.40;13.20;;;;;;5035560;28;20608;-78
2021/04/25 12:19:38;;;;;;;;;;;32.40;14.90;;;;;;5035970;28;19921;-79
2021/04/25 12:22:05;;;;;;;;;;;30.00;16.60;;;;;;5040753;28;19920;-79
2021/04/25 12:24:32;;;;;;;;;;;28.30;17.70;;;;;;5044569;28;19940;-79
2021/04/25 12:26:58;;;;;;;;;;;26.90;18.60;;;;;;5046208;28;19925;-79
2021/04/25 12:29:34;;;;;;;;;;;25.90;19.50;;;;;;5043124;28;19924;-82
2021/04/25 12:32:01;;;;;;;;;;;25.10;20.10;;;;;;5041443;28;20309;-79
2021/04/25 12:34:29;;;;;;;;;;;24.40;21.00;;;;;;5045092;28;20365;-78
2021/04/25 12:36:56;;;;;;;;;;;23.80;21.70;;;;;;5043202;28;19927;-78
2021/04/25 12:39:23;;;;;;;;;;;23.20;22.80;;;;;;5033556;28;19925;-77
2021/04/25 12:41:50;;;;;;;;;;;22.70;23.00;;;;;;5043943;28;19933;-77
2021/04/25 12:44:17;;;;;;;;;;;22.30;23.20;;;;;;5044312;28;19962;-78
2021/04/25 12:47:03;;;;;;;;;;;22.10;23.00;;;;;;5033814;28;19932;-77
2021/04/25 12:49:35;;;;;;;;;;;21.80;22.80;;;;;;5035071;28;20007;-77
2021/04/25 12:52:02;;;;;;;;;;;21.60;22.90;;;;;;5040182;28;19941;-77
2021/04/25 12:54:37;;;;;;;;;;;21.40;23.00;;;;;;5050244;28;20329;-77
2021/04/25 12:57:04;;;;;;;;;;;21.40;23.00;;;;;;5035979;28;19925;-78
2021/04/25 12:59:32;;;;;;;;;;;21.40;23.10;;;;;;5040302;28;19920;-78
2021/04/25 13:02:06;;;;;;;;;;;21.30;23.40;;;;;;5038357;28;19921;-77
2021/04/25 13:04:36;;;;;;;;;;;21.20;23.50;;;;;;5038348;28;19925;-77
2021/04/25 13:07:15;;;;;;;;;;;21.00;23.60;;;;;;5037872;28;19956;-77
2021/04/25 13:09:42;;;;;;;;;;;20.90;23.40;;;;;;5034277;28;20373;-77
2021/04/25 13:12:19;;;;;;;;;;;20.90;23.60;;;;;;5031264;28;19991;-78
2021/04/25 13:14:58;;;;;;;;;;;20.90;23.80;;;;;;5022300;28;19925;-78
2021/04/25 13:17:25;;;;;;;;;;;20.90;23.60;;;;;;5032168;28;20281;-77
2021/04/25 13:19:53;;;;;;;;;;;20.90;23.60;;;;;;5032416;28;19921;-78
2021/04/25 13:22:20;;;;;;;;;;;20.90;23.50;;;;;;5032952;28;19952;-79
2021/04/25 13:24:47;;;;;;;;;;;20.80;23.40;;;;;;5032108;28;20358;-79
2021/04/25 13:27:16;;;;;;;;;;;20.70;23.60;;;;;;5041252;28;19983;-79
2021/04/25 13:29:42;;;;;;;;;;;20.70;23.70;;;;;;5043177;28;19928;-79
2021/04/25 13:32:09;;;;;;;;;;;20.70;23.80;;;;;;5046436;28;20049;-78
2021/04/25 13:34:35;;;;;;;;;;;20.60;23.40;;;;;;5037422;28;19921;-79
2021/04/25 13:37:02;;;;;;;;;;;20.50;23.50;;;;;;5032089;28;19921;-79
2021/04/25 13:39:28;;;;;;;;;;;20.50;23.10;;;;;;5031480;28;19921;-78
2021/04/25 13:41:55;;;;;;;;;;;20.50;22.90;;;;;;5031524;28;19921;-78
2021/04/25 13:44:21;;;;;;;;;;;20.40;23.00;;;;;;5041204;28;19921;-78
2021/04/25 13:46:48;;;;;;;;;;;20.40;22.90;;;;;;5033327;28;19921;-78
2021/04/25 13:49:14;;;;;;;;;;;20.30;22.50;;;;;;5038964;28;19928;-78
2021/04/25 13:51:41;;;;;;;;;;;20.20;22.40;;;;;;5052669;28;20012;-78
2021/04/25 13:54:07;;;;;;;;;;;20.20;22.60;;;;;;5041844;28;19921;-78
2021/04/25 13:56:34;;;;;;;;;;;20.10;23.10;;;;;;5038600;28;20361;-78
2021/04/25 13:59:02;;;;;;;;;;;20.00;23.20;;;;;;5035806;28;19933;-78
2021/04/25 14:01:28;;;;;;;;;;;20.00;23.50;;;;;;5042158;28;19921;-78
2021/04/25 14:03:55;;;;;;;;;;;19.90;23.40;;;;;;5035477;28;19956;-78
2021/04/25 14:06:21;;;;;;;;;;;20.00;23.40;;;;;;5025864;28;19933;-78
2021/04/25 14:08:48;;;;;;;;;;;19.90;22.80;;;;;;5024574;28;19921;-79
2021/04/25 14:11:16;;;;;;;;;;;19.90;22.40;;;;;;5024353;28;19971;-78
2021/04/25 14:13:43;;;;;;;;;;;19.90;22.30;;;;;;5023305;28;20009;-78
2021/04/25 14:16:10;;;;;;;;;;;19.90;22.20;;;;;;5021939;28;20290;-79
2021/04/25 14:18:36;;;;;;;;;;;20.00;22.40;;;;;;5023410;28;20673;-79
2021/04/25 14:21:04;;;;;;;;;;;20.00;22.50;;;;;;5022559;28;19935;-78